Terminal Aerodrome Forecast
Issued by NWS

Home | Current Version | Previous Version | Text Only | Print | Product List | Glossary On
Versions: 1 2 3 4 5 6 7 8 9 10 11 12 13 14 15 16 17 18 19
000
FTUS41 KBTV 291238 AAA
TAFSLK
TAF AMD
KSLK 291238Z 2913/3012 29008KT 6SM -SN OVC030
      TEMPO 2913/2915 3SM -SN BR OVC015
     FM291500 29007KT P6SM VCSH SCT025 BKN035 OVC060
     FM300200 27006KT P6SM FEW040 SCT090=

USA.gov is the U.S. government's official web portal to all federal, state and local government web resources and services.